Time;durP1;ratioP1;P1;durP2;ratioP2;P2;SDS_P1;SDS_P2;PMS_P1;PMS_P2;Temp;Humidity;BMP_temperature;BMP_pressure;BME280_temperature;BME280_humidity;BME280_pressure;Samples;Min_cycle;Max_cycle;Signal;HPM_P1;HPM_P2
2021/09/30 00:00:41;;;;;;;18.88;2.40;;;12.00;99.90;;;;;;5032786;28;20207;-70
2021/09/30 00:03:10;;;;;;;12.48;2.22;;;11.90;99.90;;;;;;5049245;28;20546;-70
2021/09/30 00:05:38;;;;;;;17.70;2.20;;;11.90;99.90;;;;;;5053650;28;20278;-70
2021/09/30 00:08:05;;;;;;;17.52;2.13;;;11.80;99.90;;;;;;5054513;28;20375;-69
2021/09/30 00:10:31;;;;;;;12.25;2.22;;;11.80;99.90;;;;;;5037795;28;20253;-70
2021/09/30 00:13:01;;;;;;;12.13;2.50;;;11.80;99.90;;;;;;5047027;28;20195;-70
2021/09/30 00:51:01;;;;;;;10.55;1.90;;;12.10;99.90;;;;;;5061513;28;20195;-70
2021/09/30 01:47:12;;;;;;;9.50;1.75;;;12.50;99.90;;;;;;5062977;28;20608;-70
2021/09/30 02:18:23;;;;;;;11.57;1.88;;;12.70;99.90;;;;;;5070306;28;20284;-70
2021/09/30 02:40:19;;;;;;;12.75;2.00;;;12.60;99.90;;;;;;5087398;28;20214;-70
2021/09/30 02:59:54;;;;;;;16.70;2.22;;;12.60;99.90;;;;;;5055723;28;20195;-70
2021/09/30 03:02:26;;;;;;;14.05;2.15;;;12.60;99.90;;;;;;5051089;28;20189;-70
2021/09/30 03:04:53;;;;;;;12.68;2.00;;;12.60;99.90;;;;;;5053130;28;20186;-70
2021/09/30 03:07:20;;;;;;;22.20;1.95;;;12.70;99.90;;;;;;5057572;28;20244;-69
2021/09/30 03:09:50;;;;;;;14.90;2.08;;;12.70;99.90;;;;;;5071684;28;20664;-70
2021/09/30 03:12:29;;;;;;;15.82;2.38;;;12.70;99.90;;;;;;5075860;28;20177;-69
2021/09/30 03:18:00;;;;;;;18.42;2.38;;;12.60;99.90;;;;;;5049467;28;20239;-70
2021/09/30 03:22:59;;;;;;;12.77;2.17;;;12.60;99.90;;;;;;5054003;28;20559;-71
2021/09/30 03:25:26;;;;;;;14.23;2.05;;;12.60;99.90;;;;;;5058610;28;21017;-70
2021/09/30 03:27:53;;;;;;;13.82;2.38;;;12.60;99.90;;;;;;5071119;28;20216;-71
2021/09/30 03:30:20;;;;;;;16.63;2.03;;;12.60;99.90;;;;;;5068229;28;20186;-71
2021/09/30 03:32:46;;;;;;;10.00;2.20;;;12.60;99.90;;;;;;5052289;28;20215;-70
2021/09/30 03:35:25;;;;;;;20.90;2.53;;;12.60;99.90;;;;;;5057604;28;20183;-71
2021/09/30 03:37:51;;;;;;;21.73;1.98;;;12.60;99.90;;;;;;5053548;28;20273;-70
2021/09/30 03:40:17;;;;;;;20.45;2.83;;;12.60;99.90;;;;;;5058613;28;20190;-71
2021/09/30 03:42:43;;;;;;;10.32;1.77;;;12.60;99.90;;;;;;5074129;28;20647;-69
2021/09/30 03:45:09;;;;;;;10.98;2.25;;;12.60;99.90;;;;;;5057940;28;20182;-70
2021/09/30 03:47:39;;;;;;;14.32;2.17;;;12.60;99.90;;;;;;5052786;28;20532;-70
2021/09/30 03:50:17;;;;;;;12.52;1.98;;;12.50;99.70;;;;;;5060560;28;20227;-69
2021/09/30 03:53:02;;;;;;;9.65;1.48;;;12.50;99.70;;;;;;5058920;28;20235;-70
2021/09/30 04:00:38;;;;;;;16.45;1.95;;;12.50;99.50;;;;;;5055764;28;20543;-71
2021/09/30 04:03:05;;;;;;;18.67;2.60;;;12.50;99.50;;;;;;5058085;28;20175;-71
2021/09/30 04:05:34;;;;;;;14.57;1.80;;;12.50;99.50;;;;;;5054486;28;20210;-70
2021/09/30 04:08:00;;;;;;;17.02;2.20;;;12.50;99.50;;;;;;5058608;28;20202;-70
2021/09/30 04:10:26;;;;;;;16.05;1.90;;;12.60;99.50;;;;;;5053294;28;20182;-71
2021/09/30 04:12:52;;;;;;;14.98;2.05;;;12.60;99.40;;;;;;5044184;28;20197;-70
2021/09/30 04:15:18;;;;;;;13.32;2.05;;;12.60;99.40;;;;;;5059928;28;20186;-71
2021/09/30 04:17:45;;;;;;;11.93;1.77;;;12.60;99.20;;;;;;5060244;28;20268;-70
2021/09/30 04:20:13;;;;;;;10.73;1.70;;;12.60;99.10;;;;;;5090233;28;20733;-70
2021/09/30 04:22:40;;;;;;;11.90;1.95;;;12.60;99.00;;;;;;5060944;28;20197;-69
2021/09/30 04:25:07;;;;;;;16.35;2.65;;;12.60;98.90;;;;;;5057174;28;20614;-70
2021/09/30 04:27:33;;;;;;;15.63;2.08;;;12.60;98.70;;;;;;5059054;28;20239;-70
2021/09/30 04:29:59;;;;;;;13.57;2.30;;;12.60;98.70;;;;;;5054780;28;20608;-70
2021/09/30 04:32:27;;;;;;;11.23;1.83;;;12.60;99.00;;;;;;5059961;28;20535;-70
2021/09/30 04:34:52;;;;;;;11.15;1.77;;;12.60;98.50;;;;;;5058205;28;20182;-70
2021/09/30 04:37:18;;;;;;;12.23;1.90;;;12.60;98.40;;;;;;5055676;28;20206;-70
2021/09/30 04:39:46;;;;;;;9.57;1.73;;;12.60;98.20;;;;;;5081599;28;20270;-70
2021/09/30 04:42:11;;;;;;;12.52;2.20;;;12.60;98.00;;;;;;5073063;28;20297;-71
2021/09/30 04:44:37;;;;;;;14.18;2.00;;;12.60;97.80;;;;;;5061031;28;20545;-71
2021/09/30 04:47:03;;;;;;;10.65;1.73;;;12.60;97.70;;;;;;5057154;28;20643;-70
2021/09/30 04:49:37;;;;;;;15.82;1.83;;;12.60;97.70;;;;;;5075261;28;20185;-70
2021/09/30 04:52:03;;;;;;;13.75;2.05;;;12.60;97.40;;;;;;5055093;28;20201;-70
2021/09/30 04:54:34;;;;;;;7.72;1.73;;;12.60;97.30;;;;;;5055404;28;20655;-70
2021/09/30 04:57:00;;;;;;;14.38;1.75;;;12.60;97.30;;;;;;5055493;28;20205;-70
2021/09/30 04:59:30;;;;;;;14.23;1.75;;;12.60;97.20;;;;;;5052226;28;21078;-70
2021/09/30 05:02:14;;;;;;;12.65;2.08;;;12.60;97.10;;;;;;5069539;28;20759;-70
2021/09/30 05:04:39;;;;;;;14.27;2.05;;;12.50;97.00;;;;;;5041127;28;20186;-70
2021/09/30 05:07:06;;;;;;;14.10;1.70;;;12.50;96.90;;;;;;5057129;28;20269;-70
2021/09/30 05:09:34;;;;;;;14.30;1.85;;;12.50;96.80;;;;;;5051402;28;20186;-70
2021/09/30 05:12:03;;;;;;;10.10;1.65;;;12.50;96.60;;;;;;5052370;28;20187;-69
2021/09/30 05:14:32;;;;;;;11.48;1.85;;;12.40;96.60;;;;;;5058792;28;20710;-70
2021/09/30 05:16:58;;;;;;;12.18;1.92;;;12.50;96.60;;;;;;5059253;28;20305;-69
2021/09/30 05:19:54;;;;;;;15.25;1.70;;;12.40;96.50;;;;;;5060580;28;20328;-70
2021/09/30 05:22:20;;;;;;;11.32;1.88;;;12.40;96.40;;;;;;5045943;28;20272;-69
2021/09/30 05:24:45;;;;;;;10.07;1.80;;;12.40;96.40;;;;;;5067608;28;20232;-69
2021/09/30 05:27:11;;;;;;;12.88;1.70;;;12.40;96.30;;;;;;5067573;28;20915;-69
2021/09/30 05:29:39;;;;;;;12.10;1.90;;;12.40;96.30;;;;;;5092292;28;20182;-70
2021/09/30 05:32:08;;;;;;;19.05;2.42;;;12.40;96.20;;;;;;5072291;28;20197;-70
2021/09/30 05:34:57;;;;;;;19.15;1.95;;;12.40;96.10;;;;;;5072426;28;20235;-69
2021/09/30 05:37:28;;;;;;;7.35;1.85;;;12.50;96.40;;;;;;5070512;28;20251;-69
2021/09/30 05:39:55;;;;;;;9.20;2.05;;;12.50;96.00;;;;;;5080312;28;20901;-70
2021/09/30 05:42:23;;;;;;;9.70;1.70;;;12.50;95.90;;;;;;5108392;27;20234;-70
2021/09/30 05:44:51;;;;;;;10.07;1.75;;;12.50;95.90;;;;;;5082142;28;20189;-69
2021/09/30 05:47:17;;;;;;;21.90;2.33;;;12.50;95.80;;;;;;5076370;28;20182;-70
2021/09/30 05:49:43;;;;;;;15.30;2.30;;;12.50;95.70;;;;;;5071108;28;20178;-69
2021/09/30 05:52:29;;;;;;;13.02;2.05;;;12.50;95.60;;;;;;5062282;28;20198;-69
2021/09/30 05:55:06;;;;;;;12.15;1.90;;;12.50;95.50;;;;;;5081473;28;20181;-69
2021/09/30 05:57:33;;;;;;;9.20;1.70;;;12.50;95.50;;;;;;5077552;28;20191;-69
2021/09/30 06:00:12;;;;;;;9.95;2.03;;;12.50;95.50;;;;;;5071878;28;20174;-69
2021/09/30 06:11:14;;;;;;;9.60;2.97;;;12.50;95.10;;;;;;5038407;28;20611;-69
2021/09/30 06:16:26;;;;;;;7.95;1.67;;;12.50;94.90;;;;;;5074276;28;20899;-69
2021/09/30 06:19:03;;;;;;;9.00;1.67;;;12.50;94.80;;;;;;5071988;28;20602;-69
2021/09/30 06:21:31;;;;;;;10.23;1.60;;;12.50;94.40;;;;;;5080273;28;20229;-69
2021/09/30 06:23:58;;;;;;;7.35;1.38;;;12.60;94.30;;;;;;5077469;28;20260;-71
2021/09/30 06:26:25;;;;;;;12.90;2.00;;;12.60;94.10;;;;;;5090293;28;20202;-71
2021/09/30 06:29:17;;;;;;;11.93;1.58;;;12.70;94.00;;;;;;5072674;28;20677;-70
2021/09/30 06:31:44;;;;;;;8.27;1.75;;;12.80;94.00;;;;;;5066397;28;20183;-71
2021/09/30 06:34:29;;;;;;;8.60;1.80;;;12.80;93.80;;;;;;5074173;28;20197;-71
2021/09/30 06:37:09;;;;;;;9.82;1.55;;;12.90;93.60;;;;;;5082123;28;20189;-71
2021/09/30 06:39:37;;;;;;;11.18;1.77;;;12.90;93.60;;;;;;5068267;28;20277;-71
2021/09/30 06:42:04;;;;;;;7.10;1.40;;;12.90;93.40;;;;;;5070999;28;21222;-71
2021/09/30 06:44:48;;;;;;;11.38;1.80;;;13.00;93.40;;;;;;5071363;28;20960;-74
2021/09/30 06:47:37;;;;;;;7.13;1.60;;;13.10;93.40;;;;;;5079230;28;20216;-71
2021/09/30 06:50:12;;;;;;;7.47;1.30;;;13.20;93.30;;;;;;5077591;28;20186;-70
2021/09/30 06:52:57;;;;;;;8.52;1.55;;;13.20;93.20;;;;;;5076582;28;20229;-70
2021/09/30 06:56:02;;;;;;;7.78;1.48;;;13.30;93.10;;;;;;5070200;28;20231;-72
2021/09/30 06:58:47;;;;;;;16.10;1.60;;;13.30;92.90;;;;;;5073102;28;20230;-70
2021/09/30 07:01:35;;;;;;;5.05;1.15;;;13.40;92.70;;;;;;5071905;28;20252;-70
2021/09/30 07:04:19;;;;;;;11.27;1.63;;;13.40;92.50;;;;;;5070661;28;20193;-73
2021/09/30 07:06:55;;;;;;;12.85;1.80;;;13.40;92.40;;;;;;5073955;28;20186;-72
2021/09/30 07:09:21;;;;;;;9.57;1.45;;;13.40;92.20;;;;;;5069624;28;20248;-67
2021/09/30 07:11:46;;;;;;;7.25;1.55;;;13.50;92.20;;;;;;5071778;28;20189;-70
2021/09/30 07:14:12;;;;;;;7.38;1.67;;;13.50;92.20;;;;;;5074786;28;20533;-70
2021/09/30 07:16:38;;;;;;;9.90;1.33;;;13.60;92.00;;;;;;5068863;28;20183;-70
2021/09/30 07:19:05;;;;;;;7.32;1.30;;;13.60;91.80;;;;;;5069865;28;20203;-72
2021/09/30 07:21:31;;;;;;;6.97;1.33;;;13.70;92.10;;;;;;5069961;28;20217;-74
2021/09/30 07:23:56;;;;;;;13.55;1.48;;;13.70;91.60;;;;;;5066407;28;20226;-73
2021/09/30 07:26:22;;;;;;;12.18;1.58;;;13.80;91.40;;;;;;5064509;28;20650;-70
2021/09/30 07:28:48;;;;;;;7.35;1.23;;;13.80;91.40;;;;;;5063012;28;20190;-72
2021/09/30 07:31:14;;;;;;;4.70;1.20;;;13.80;91.40;;;;;;5046861;28;20296;-70
2021/09/30 07:33:39;;;;;;;14.05;1.55;;;13.80;91.30;;;;;;5062092;28;20218;-71
2021/09/30 07:36:05;;;;;;;5.43;1.17;;;13.80;91.20;;;;;;5063995;28;20187;-71
2021/09/30 07:38:30;;;;;;;9.52;1.50;;;13.80;91.00;;;;;;5063870;28;20552;-73
2021/09/30 07:40:56;;;;;;;8.48;1.02;;;13.90;91.00;;;;;;5063348;28;20213;-71
2021/09/30 07:43:22;;;;;;;13.00;1.48;;;13.90;91.00;;;;;;5063604;28;20681;-73
2021/09/30 07:45:48;;;;;;;5.28;1.10;;;14.00;90.90;;;;;;5064484;28;20202;-70
2021/09/30 07:48:14;;;;;;;10.85;1.33;;;14.10;90.80;;;;;;5063468;28;20186;-71
2021/09/30 07:50:39;;;;;;;11.88;1.63;;;14.10;90.60;;;;;;5045990;28;20198;-70
2021/09/30 07:53:05;;;;;;;7.00;1.20;;;14.20;90.40;;;;;;5061707;28;20256;-71
2021/09/30 07:55:31;;;;;;;4.93;1.33;;;14.30;90.20;;;;;;5062307;28;20211;-72
2021/09/30 07:57:56;;;;;;;8.32;1.67;;;14.30;89.80;;;;;;5044864;28;20190;-70
2021/09/30 08:00:22;;;;;;;6.13;1.30;;;14.40;89.60;;;;;;5042790;28;20675;-70
2021/09/30 08:02:48;;;;;;;6.75;1.33;;;14.40;88.50;;;;;;5063734;28;20204;-72
2021/09/30 08:05:13;;;;;;;5.55;1.55;;;14.50;88.30;;;;;;5062591;28;20179;-71
2021/09/30 08:07:39;;;;;;;4.78;1.10;;;14.60;88.40;;;;;;5045702;28;20194;-74
2021/09/30 08:10:05;;;;;;;8.52;1.30;;;14.60;86.90;;;;;;5061767;28;20183;-74
2021/09/30 08:12:31;;;;;;;4.80;1.10;;;14.60;86.80;;;;;;5062884;28;20191;-72
2021/09/30 08:14:57;;;;;;;5.38;1.23;;;14.60;86.20;;;;;;5063005;28;20236;-69
2021/09/30 08:17:22;;;;;;;3.00;1.00;;;14.70;86.20;;;;;;5061819;28;20515;-73
2021/09/30 08:19:48;;;;;;;11.98;1.60;;;14.70;86.10;;;;;;5061971;28;20178;-74
2021/09/30 08:22:14;;;;;;;9.25;1.25;;;14.80;86.10;;;;;;5062810;28;20218;-73
2021/09/30 08:24:40;;;;;;;6.93;1.30;;;14.90;85.70;;;;;;5056957;28;20632;-71
2021/09/30 08:27:06;;;;;;;6.22;1.75;;;14.90;85.30;;;;;;5068147;28;20183;-73
2021/09/30 08:29:32;;;;;;;;;;;15.10;85.50;;;;;;5070437;28;20123;-70
2021/09/30 08:31:57;;;;;;;6.75;1.30;;;15.30;84.80;;;;;;5067057;28;20189;-71
2021/09/30 08:34:23;;;;;;;6.85;1.17;;;15.80;84.90;;;;;;5068176;28;20058;-71
2021/09/30 08:36:49;;;;;;;9.05;1.17;;;16.40;84.00;;;;;;5067996;28;20693;-70
2021/09/30 08:39:14;;;;;;;12.20;1.60;;;16.80;83.00;;;;;;5067209;28;20220;-70
2021/09/30 08:41:40;;;;;;;9.45;1.60;;;17.10;81.10;;;;;;5073782;28;20313;-72
2021/09/30 08:44:07;;;;;;;6.07;1.20;;;17.30;80.20;;;;;;5069340;28;20189;-71
2021/09/30 08:46:34;;;;;;;7.70;1.40;;;17.40;78.60;;;;;;5069164;28;20187;-70
2021/09/30 08:49:01;;;;;;;9.48;1.58;;;17.40;78.10;;;;;;5066998;28;20191;-71
2021/09/30 08:51:27;;;;;;;7.10;1.25;;;17.50;77.50;;;;;;5068145;28;20920;-71
2021/09/30 08:53:52;;;;;;;8.18;1.42;;;17.70;76.70;;;;;;5068034;28;20192;-72
2021/09/30 08:56:18;;;;;;;6.15;1.23;;;18.00;75.90;;;;;;5070407;28;20130;-72
2021/09/30 08:58:44;;;;;;;8.18;1.00;;;18.40;75.40;;;;;;5068043;28;20710;-72
2021/09/30 09:01:11;;;;;;;6.55;1.38;;;18.60;72.70;;;;;;5067401;28;20206;-72
2021/09/30 09:03:39;;;;;;;14.65;1.35;;;18.70;71.50;;;;;;5068586;28;20201;-73
2021/09/30 09:06:07;;;;;;;6.85;1.10;;;18.70;71.10;;;;;;5068153;28;20273;-73
2021/09/30 09:08:33;;;;;;;7.45;1.10;;;18.90;70.10;;;;;;5068734;28;20182;-70
2021/09/30 09:11:01;;;;;;;7.55;1.08;;;19.00;69.50;;;;;;5070828;28;20182;-70
2021/09/30 09:13:27;;;;;;;10.45;1.20;;;18.80;69.20;;;;;;5069161;28;20235;-71
2021/09/30 09:15:54;;;;;;;6.68;1.20;;;18.70;69.50;;;;;;5067801;28;20193;-71
2021/09/30 09:18:20;;;;;;;;;;;19.10;70.50;;;;;;5068624;28;20066;-73
2021/09/30 09:20:48;;;;;;;;;;;20.10;69.00;;;;;;5069943;28;19962;-74
2021/09/30 09:23:13;;;;;;;7.60;1.27;;;21.30;66.00;;;;;;5100557;28;20219;-72
2021/09/30 09:25:40;;;;;;;5.63;1.25;;;22.20;61.90;;;;;;5084581;28;21018;-71
2021/09/30 09:28:06;;;;;;;6.03;1.20;;;23.10;59.60;;;;;;5071183;28;20864;-73
2021/09/30 09:30:33;;;;;;;;;;;23.80;56.20;;;;;;5099422;28;20119;-75
2021/09/30 09:32:59;;;;;;;;;;;24.40;53.80;;;;;;5069435;28;20717;-77
2021/09/30 09:35:24;;;;;;;3.42;1.08;;;24.90;52.30;;;;;;5098612;28;20212;-75
2021/09/30 09:37:52;;;;;;;5.07;1.10;;;24.50;50.50;;;;;;5066342;28;20191;-74
2021/09/30 09:40:19;;;;;;;6.10;1.30;;;23.90;51.00;;;;;;5080051;28;20415;-75
2021/09/30 09:42:46;;;;;;;10.50;1.40;;;24.80;43.30;;;;;;5065636;28;20708;-74
2021/09/30 09:45:13;;;;;;;5.53;1.10;;;23.50;46.40;;;;;;5066247;28;20195;-71
2021/09/30 09:47:42;;;;;;;3.90;0.90;;;22.90;49.20;;;;;;5072411;28;20191;-73
2021/09/30 09:50:16;;;;;;;3.70;1.00;;;22.50;49.80;;;;;;5075349;28;20243;-73
2021/09/30 09:52:46;;;;;;;6.00;0.77;;;22.10;50.40;;;;;;5067662;28;20186;-71
2021/09/30 09:55:22;;;;;;;5.95;1.20;;;21.40;50.90;;;;;;5065805;28;20182;-75
2021/09/30 09:57:58;;;;;;;;;;;20.70;52.20;;;;;;5067357;28;20473;-71
2021/09/30 10:00:24;;;;;;;6.55;1.20;;;20.20;53.30;;;;;;5067346;28;20213;-74
2021/09/30 10:02:51;;;;;;;5.25;1.67;;;19.80;54.10;;;;;;5075605;28;20059;-73
2021/09/30 10:05:18;;;;;;;6.57;1.30;;;19.50;55.10;;;;;;5072228;28;20593;-72
2021/09/30 10:07:45;;;;;;;6.32;1.08;;;19.30;55.70;;;;;;5072458;28;20208;-72
2021/09/30 10:10:11;;;;;;;9.18;1.55;;;19.10;56.40;;;;;;5076417;28;20186;-72
2021/09/30 10:12:38;;;;;;;6.22;0.90;;;18.90;57.30;;;;;;5102900;27;20199;-71
2021/09/30 10:15:05;;;;;;;5.75;1.10;;;18.70;57.50;;;;;;5069781;28;20662;-72
2021/09/30 10:17:31;;;;;;;7.18;1.80;;;18.50;57.60;;;;;;5070799;28;20646;-74
2021/09/30 10:19:58;;;;;;;6.18;1.27;;;18.30;58.10;;;;;;5104457;27;20197;-72
2021/09/30 10:22:26;;;;;;;7.10;1.73;;;18.30;59.80;;;;;;5072730;28;20249;-71
2021/09/30 10:24:53;;;;;;;8.18;1.30;;;18.20;62.60;;;;;;5068285;28;20223;-73
2021/09/30 10:27:20;;;;;;;7.13;1.65;;;18.00;63.30;;;;;;5069364;28;20662;-72
2021/09/30 10:29:47;;;;;;;4.18;0.90;;;17.90;64.30;;;;;;5069634;28;20206;-71
2021/09/30 10:32:19;;;;;;;2.35;0.88;;;17.80;63.80;;;;;;5069986;28;20328;-73
2021/09/30 10:34:51;;;;;;;4.22;0.90;;;17.80;63.50;;;;;;5073363;28;20191;-75
2021/09/30 10:37:36;;;;;;;4.30;1.17;;;17.70;63.00;;;;;;5075274;28;20185;-72
2021/09/30 10:40:18;;;;;;;5.28;1.15;;;17.60;63.20;;;;;;5072025;28;20281;-73
2021/09/30 10:42:57;;;;;;;5.18;1.05;;;17.40;63.90;;;;;;5068237;28;20182;-74
2021/09/30 10:45:27;;;;;;;9.57;1.45;;;17.30;64.40;;;;;;5070994;28;20188;-73
2021/09/30 10:48:03;;;;;;;3.63;1.10;;;17.20;65.30;;;;;;5074128;28;20186;-76
2021/09/30 10:50:46;;;;;;;7.10;0.90;;;17.10;66.40;;;;;;5073307;28;20097;-72
2021/09/30 10:53:12;;;;;;;;;;;17.00;69.30;;;;;;5070955;28;20054;-73
2021/09/30 10:55:37;;;;;;;11.50;1.27;;;16.80;70.30;;;;;;5083955;28;20189;-73
2021/09/30 10:58:18;;;;;;;8.48;1.40;;;16.70;71.70;;;;;;5035470;28;20544;-75
2021/09/30 11:00:47;;;;;;;10.40;1.63;;;16.70;73.20;;;;;;5070056;28;20210;-72
2021/09/30 11:03:15;;;;;;;10.50;1.52;;;16.50;74.80;;;;;;5068521;28;20712;-71
2021/09/30 11:05:42;;;;;;;7.07;1.63;;;16.50;76.30;;;;;;5052676;28;20197;-71
2021/09/30 11:08:18;;;;;;;5.38;1.15;;;16.50;77.00;;;;;;5070333;28;20235;-72
2021/09/30 11:11:02;;;;;;;13.27;1.75;;;16.50;77.30;;;;;;5050577;28;20182;-73
2021/09/30 11:13:33;;;;;;;7.72;1.08;;;16.40;77.70;;;;;;5070629;28;20224;-72
2021/09/30 11:16:00;;;;;;;6.60;1.70;;;16.30;77.70;;;;;;5051056;28;20222;-73
2021/09/30 11:18:51;;;;;;;8.57;1.38;;;16.30;77.80;;;;;;5083647;28;20190;-73
2021/09/30 11:21:32;;;;;;;8.52;1.10;;;16.30;77.80;;;;;;5052507;28;20284;-72
2021/09/30 11:23:59;;;;;;;8.57;1.58;;;16.20;77.70;;;;;;5074866;28;20237;-72
2021/09/30 11:33:45;;;;;;;11.48;1.45;;;16.40;76.80;;;;;;5041277;28;20806;-71
2021/09/30 11:36:11;;;;;;;10.63;1.63;;;16.40;75.90;;;;;;5036455;28;20191;-71
2021/09/30 11:38:38;;;;;;;8.55;2.13;;;16.60;75.90;;;;;;5025449;28;20247;-72
2021/09/30 11:41:05;;;;;;;8.30;1.27;;;16.70;75.80;;;;;;5034838;28;20214;-72
2021/09/30 11:43:31;;;;;;;10.68;1.40;;;16.80;75.80;;;;;;5041076;28;20200;-71
2021/09/30 11:45:57;;;;;;;8.95;1.17;;;16.90;75.80;;;;;;5024259;28;20195;-72
2021/09/30 11:48:23;;;;;;;7.85;1.30;;;16.90;76.00;;;;;;5038717;28;20183;-71
2021/09/30 11:50:56;;;;;;;9.55;1.48;;;16.90;76.30;;;;;;5040315;28;20194;-72
2021/09/30 11:53:23;;;;;;;7.25;1.40;;;16.80;77.50;;;;;;5040011;28;20297;-72
2021/09/30 11:55:50;;;;;;;6.05;1.55;;;16.80;79.50;;;;;;5039962;28;20257;-72
2021/09/30 11:58:16;;;;;;;10.48;1.73;;;16.70;80.50;;;;;;5038553;28;20199;-70
2021/09/30 12:00:44;;;;;;;6.47;1.23;;;16.60;81.70;;;;;;5054329;28;20210;-73
2021/09/30 12:03:10;;;;;;;4.95;1.35;;;16.50;82.10;;;;;;5062142;28;20252;-71
2021/09/30 12:05:38;;;;;;;10.57;1.30;;;16.40;82.10;;;;;;5061578;28;20223;-71
2021/09/30 12:08:06;;;;;;;7.00;1.50;;;16.30;82.40;;;;;;5062949;28;20186;-71
2021/09/30 12:10:35;;;;;;;8.57;1.67;;;16.30;82.90;;;;;;5061318;28;20183;-73
2021/09/30 12:13:14;;;;;;;8.70;1.23;;;16.20;83.00;;;;;;5061650;28;20812;-72
2021/09/30 12:15:40;;;;;;;6.55;1.17;;;16.20;83.30;;;;;;5043656;28;20186;-72
2021/09/30 12:18:23;;;;;;;7.07;1.48;;;16.10;83.80;;;;;;5061042;28;20249;-74
2021/09/30 12:20:54;;;;;;;6.00;1.52;;;16.10;84.60;;;;;;5048517;28;20562;-71
2021/09/30 12:23:19;;;;;;;7.20;1.40;;;16.10;84.40;;;;;;5062384;28;20243;-72
2021/09/30 12:25:46;;;;;;;6.53;1.75;;;16.10;84.80;;;;;;5063250;28;20194;-73
2021/09/30 12:28:12;;;;;;;9.15;1.55;;;16.20;84.80;;;;;;5044680;28;20178;-72
2021/09/30 12:30:39;;;;;;;9.02;1.42;;;16.20;84.60;;;;;;5061373;28;20235;-70
2021/09/30 12:33:05;;;;;;;4.88;1.38;;;16.20;84.60;;;;;;5061120;28;20183;-74
2021/09/30 12:35:37;;;;;;;7.13;1.60;;;16.20;84.60;;;;;;5061722;28;20198;-71
2021/09/30 12:38:10;;;;;;;7.45;1.50;;;16.20;84.60;;;;;;5063468;28;20208;-71
2021/09/30 12:40:42;;;;;;;10.95;1.77;;;16.10;84.90;;;;;;5060554;28;20223;-71
2021/09/30 12:43:12;;;;;;;7.80;1.80;;;16.00;84.90;;;;;;5045646;28;20187;-71
2021/09/30 12:45:40;;;;;;;6.82;1.50;;;16.10;84.70;;;;;;5060429;28;20324;-73
2021/09/30 12:48:11;;;;;;;8.10;2.03;;;16.00;84.80;;;;;;5063149;28;20539;-73
2021/09/30 12:50:50;;;;;;;7.25;1.70;;;16.00;85.00;;;;;;5059893;28;20194;-69
2021/09/30 12:53:17;;;;;;;;;;;16.00;85.00;;;;;;5075227;28;20674;-73
2021/09/30 12:55:43;;;;;;;;;;;16.00;85.00;;;;;;5061917;28;20028;-73
2021/09/30 12:58:28;;;;;;;;;;;16.00;84.80;;;;;;5064444;28;19945;-71
2021/09/30 13:00:53;;;;;;;;;;;15.90;84.70;;;;;;5058633;28;19999;-72
2021/09/30 13:03:19;;;;;;;;;;;15.90;84.40;;;;;;5063211;28;19949;-72
2021/09/30 13:05:49;;;;;;;;;;;15.90;83.90;;;;;;5062231;28;19949;-72
2021/09/30 13:08:34;;;;;;;;;;;15.90;83.40;;;;;;5059336;28;20048;-73
2021/09/30 13:11:18;;;;;;;;;;;15.80;83.00;;;;;;5059987;28;19952;-71
2021/09/30 13:13:43;;;;;;;;;;;15.70;83.00;;;;;;5061310;28;20654;-72
2021/09/30 13:16:21;;;;;;;;;;;15.80;83.10;;;;;;5061551;28;19957;-72
2021/09/30 13:18:47;;;;;;;;;;;15.80;82.70;;;;;;5063019;28;20000;-74
2021/09/30 13:21:12;;;;;;;;;;;15.80;82.60;;;;;;5042826;28;20523;-70
2021/09/30 13:23:38;;;;;;;;;;;15.90;82.40;;;;;;5063649;28;20030;-71
2021/09/30 13:26:04;;;;;;;;;;;15.90;82.30;;;;;;5061508;28;19984;-72
2021/09/30 13:28:29;;;;;;;;;;;15.90;82.20;;;;;;5062656;28;19947;-73
2021/09/30 13:30:55;;;;;;;;;;;16.00;82.50;;;;;;5044183;28;20422;-73
2021/09/30 13:33:20;;;;;;;;;;;16.00;82.30;;;;;;5064955;28;20474;-70
2021/09/30 13:35:46;;;;;;;;;;;16.00;82.30;;;;;;5067378;28;20001;-74
2021/09/30 13:38:11;;;;;;;;;;;16.10;82.30;;;;;;5063841;28;19961;-72
2021/09/30 13:40:37;;;;;;;;;;;16.10;83.10;;;;;;5080430;28;19960;-71
2021/09/30 13:43:03;;;;;;;;;;;16.20;82.00;;;;;;5065317;28;20000;-72
2021/09/30 13:45:28;;;;;;;;;;;16.20;81.80;;;;;;5046261;28;19996;-74
2021/09/30 13:47:54;;;;;;;;;;;16.20;81.90;;;;;;5048619;28;19946;-72
2021/09/30 13:50:21;;;;;;;;;;;16.10;82.00;;;;;;5063191;28;20016;-73
2021/09/30 13:52:48;;;;;;;;;;;16.10;82.30;;;;;;5065988;28;20036;-73
2021/09/30 13:55:14;;;;;;;;;;;16.10;82.60;;;;;;5064663;28;19946;-74
2021/09/30 13:57:40;;;;;;;;;;;16.10;82.70;;;;;;5031156;28;19958;-72
2021/09/30 14:00:07;;;;;;;;;;;16.10;83.00;;;;;;5048269;28;20056;-72
2021/09/30 14:02:33;;;;;;;;;;;16.00;83.20;;;;;;5045841;28;19951;-72
2021/09/30 14:04:58;;;;;;;;;;;15.90;83.40;;;;;;5065183;28;19950;-72
2021/09/30 14:07:24;;;;;;;;;;;15.90;83.70;;;;;;5064896;28;20411;-75
2021/09/30 14:09:50;;;;;;;;;;;15.90;83.90;;;;;;5063974;28;19948;-73
2021/09/30 14:12:15;;;;;;;;;;;15.80;84.30;;;;;;5066370;28;19975;-73
2021/09/30 14:14:41;;;;;;;8.50;1.95;;;15.80;84.40;;;;;;5062463;28;20369;-71
2021/09/30 14:17:07;;;;;;;10.93;2.00;;;15.70;84.70;;;;;;5028541;28;20205;-72
2021/09/30 14:19:32;;;;;;;15.95;2.10;;;15.70;84.90;;;;;;5062824;28;20194;-70
2021/09/30 14:21:58;;;;;;;11.50;1.83;;;15.70;85.40;;;;;;5043643;28;20260;-72
2021/09/30 14:24:24;;;;;;;8.65;2.08;;;15.60;85.50;;;;;;5065302;28;20565;-73
2021/09/30 14:26:50;;;;;;;8.45;1.80;;;15.60;85.80;;;;;;5064303;28;20190;-73
2021/09/30 14:29:16;;;;;;;12.25;1.75;;;15.60;86.10;;;;;;5058921;28;20187;-71
2021/09/30 14:31:42;;;;;;;10.70;1.65;;;15.50;86.40;;;;;;5062195;28;20183;-72
2021/09/30 14:34:07;;;;;;;7.93;1.83;;;15.50;86.60;;;;;;5047512;28;20232;-74
2021/09/30 14:36:33;;;;;;;13.77;1.80;;;15.50;87.00;;;;;;5058269;28;20187;-73
2021/09/30 14:39:00;;;;;;;6.95;1.67;;;15.60;87.30;;;;;;5060070;28;20189;-72
2021/09/30 14:41:25;;;;;;;8.48;1.65;;;15.60;87.50;;;;;;5063034;28;20219;-70
2021/09/30 14:43:52;;;;;;;8.18;1.90;;;15.60;87.70;;;;;;5045158;28;20251;-72
2021/09/30 14:46:18;;;;;;;9.10;2.08;;;15.50;87.80;;;;;;5064331;28;21270;-71
2021/09/30 14:48:44;;;;;;;10.55;2.13;;;15.50;88.20;;;;;;5064668;28;20260;-72
2021/09/30 14:51:11;;;;;;;9.20;1.80;;;15.50;88.50;;;;;;5045407;28;20194;-74
2021/09/30 14:53:38;;;;;;;8.57;1.75;;;15.60;88.70;;;;;;5063088;28;20190;-74
2021/09/30 14:56:05;;;;;;;9.07;1.73;;;15.50;88.80;;;;;;5049457;28;20188;-72
2021/09/30 14:58:31;;;;;;;11.10;2.15;;;15.50;89.00;;;;;;5037631;28;20194;-72
2021/09/30 15:00:57;;;;;;;7.10;1.70;;;15.50;89.10;;;;;;5045291;28;20321;-72
2021/09/30 15:03:22;;;;;;;10.68;1.90;;;15.50;89.30;;;;;;5045053;28;20313;-70
2021/09/30 15:05:48;;;;;;;9.02;1.80;;;15.50;89.30;;;;;;5063856;28;20270;-71
2021/09/30 15:08:14;;;;;;;13.00;2.03;;;15.50;89.40;;;;;;5044804;28;20186;-73
2021/09/30 15:10:40;;;;;;;9.10;1.70;;;15.50;89.60;;;;;;5047346;28;20186;-71
2021/09/30 15:13:05;;;;;;;11.60;2.17;;;15.40;89.70;;;;;;5063440;28;20542;-71
2021/09/30 15:15:32;;;;;;;8.45;2.05;;;15.40;89.90;;;;;;5063904;28;20191;-70
2021/09/30 15:18:03;;;;;;;8.32;1.55;;;15.40;89.80;;;;;;5064357;28;20186;-70
2021/09/30 15:23:07;;;;;;;9.55;2.00;;;15.40;89.80;;;;;;5063332;28;20661;-72
2021/09/30 15:25:37;;;;;;;6.88;2.45;;;15.40;89.60;;;;;;5068316;28;20254;-69
2021/09/30 15:28:04;;;;;;;16.50;4.80;;;15.40;89.50;;;;;;5068225;28;20190;-71
2021/09/30 15:30:31;;;;;;;11.98;2.83;;;15.40;89.30;;;;;;5067439;28;20194;-69
2021/09/30 15:32:57;;;;;;;12.85;2.83;;;15.40;88.90;;;;;;5071222;28;20181;-70
2021/09/30 15:35:23;;;;;;;9.25;4.20;;;15.40;88.60;;;;;;5081421;28;20626;-71
2021/09/30 15:37:49;;;;;;;8.38;2.60;;;15.50;88.30;;;;;;5039467;28;20187;-71
2021/09/30 15:40:16;;;;;;;11.13;2.65;;;15.40;88.00;;;;;;5069213;28;20232;-72
2021/09/30 15:42:44;;;;;;;8.98;1.75;;;15.40;87.60;;;;;;5070373;28;20218;-71
2021/09/30 15:45:10;;;;;;;8.40;1.80;;;15.40;88.10;;;;;;5068690;28;20206;-71
2021/09/30 15:47:35;;;;;;;12.35;2.65;;;15.40;87.30;;;;;;5069022;28;20214;-71
2021/09/30 15:50:01;;;;;;;7.72;1.88;;;15.40;87.00;;;;;;5069507;28;20415;-73
2021/09/30 15:52:26;;;;;;;9.38;2.00;;;15.40;86.70;;;;;;5069878;28;21009;-70
2021/09/30 15:54:52;;;;;;;7.70;1.60;;;15.40;86.50;;;;;;5048286;28;20196;-72
2021/09/30 15:57:18;;;;;;;7.18;1.98;;;15.40;86.50;;;;;;5066524;28;20193;-70
2021/09/30 15:59:44;;;;;;;6.47;2.15;;;15.40;87.20;;;;;;5074611;28;20269;-71
2021/09/30 16:02:09;;;;;;;6.25;1.75;;;15.40;86.40;;;;;;5050901;28;20625;-69
2021/09/30 16:04:35;;;;;;;12.93;1.92;;;15.40;86.30;;;;;;5069183;28;20813;-70
2021/09/30 16:07:01;;;;;;;3.78;1.30;;;15.40;86.10;;;;;;5070121;28;20189;-72